Time,TemperatureF,DewpointF,PressureIn,WindDirection,WindDirectionDegrees,WindSpeedMPH,WindSpeedGustMPH,Humidity,HourlyPrecipIn,Conditions,Clouds,dailyrainin,SolarRadiationWatts/m^2,SoftwareType,DateUTC
2013-03-06 00:11:00,44.0,41.0,-100.00,SW,231,8.0,16.0,88,0.00,,,0.00,0.000000,,2013-03-06 08:11:00,
2013-03-06 00:21:00,44.0,41.0,-100.00,SW,231,8.0,16.0,88,0.00,,,0.00,0.000000,,2013-03-06 08:21:00,
2013-03-06 00:31:00,44.0,41.0,-100.00,SW,231,8.0,16.0,88,0.00,,,0.00,0.000000,,2013-03-06 08:31:00,
2013-03-06 00:42:00,44.0,41.0,-100.00,SW,231,8.0,16.0,88,0.00,,,0.00,0.000000,,2013-03-06 08:42:00,
2013-03-06 00:50:00,44.0,40.0,-100.00,WSW,245,10.0,17.0,86,0.00,,,0.00,0.000000,,2013-03-06 08:50:00,
2013-03-06 01:21:00,44.0,40.0,-100.00,WSW,245,10.0,17.0,86,0.00,,,0.00,0.000000,,2013-03-06 09:21:00,
2013-03-06 01:31:00,44.0,40.0,-100.00,WSW,245,10.0,17.0,86,0.00,,,0.00,0.000000,,2013-03-06 09:31:00,
2013-03-06 01:41:00,44.0,40.0,-100.00,WSW,245,10.0,17.0,86,0.00,,,0.00,0.000000,,2013-03-06 09:41:00,
2013-03-06 01:50:00,43.0,39.0,-100.00,WSW,237,13.0,25.0,86,0.00,,,0.00,0.000000,,2013-03-06 09:50:00,
2013-03-06 02:11:00,43.0,39.0,-100.00,WSW,237,13.0,25.0,86,0.00,,,0.00,0.000000,,2013-03-06 10:11:00,
2013-03-06 02:21:00,43.0,39.0,-100.00,WSW,237,13.0,25.0,86,0.00,,,0.00,0.000000,,2013-03-06 10:21:00,
2013-03-06 02:31:00,43.0,39.0,-100.00,WSW,237,13.0,25.0,86,0.00,,,0.00,0.000000,,2013-03-06 10:31:00,
2013-03-06 02:41:00,43.0,39.0,-100.00,WSW,237,13.0,25.0,86,0.00,,,0.00,0.000000,,2013-03-06 10:41:00,
2013-03-06 02:50:00,42.0,38.0,-100.00,SW,232,12.0,22.0,85,0.00,,,0.00,0.000000,,2013-03-06 10:50:00,
2013-03-06 03:11:00,42.0,38.0,-100.00,SW,232,12.0,22.0,85,0.00,,,0.00,0.000000,,2013-03-06 11:11:00,
2013-03-06 03:22:00,42.0,38.0,-100.00,SW,232,12.0,22.0,85,0.00,,,0.00,0.000000,,2013-03-06 11:22:00,
2013-03-06 03:32:00,42.0,38.0,-100.00,SW,232,12.0,22.0,85,0.00,,,0.00,0.000000,,2013-03-06 11:32:00,
2013-03-06 03:42:00,42.0,38.0,-100.00,SW,232,12.0,22.0,85,0.00,,,0.00,0.000000,,2013-03-06 11:42:00,
2013-03-06 03:50:00,41.0,35.0,-100.00,SW,226,10.0,15.0,80,0.00,,,0.00,0.000000,,2013-03-06 11:50:00,
2013-03-06 04:11:00,41.0,35.0,-100.00,SW,226,10.0,15.0,80,0.00,,,0.00,0.000000,,2013-03-06 12:11:00,
2013-03-06 04:21:00,41.0,35.0,-100.00,SW,226,10.0,15.0,80,0.00,,,0.00,0.000000,,2013-03-06 12:21:00,
2013-03-06 04:32:00,41.0,35.0,-100.00,SW,226,10.0,15.0,80,0.00,,,0.00,0.000000,,2013-03-06 12:32:00,
2013-03-06 04:42:00,41.0,35.0,-100.00,SW,226,10.0,15.0,80,0.00,,,0.00,0.000000,,2013-03-06 12:42:00,
2013-03-06 04:50:00,41.0,37.0,-100.00,SSW,194,4.0,16.0,84,0.00,,,0.00,0.000000,,2013-03-06 12:50:00,
2013-03-06 05:11:00,41.0,37.0,-100.00,SSW,194,4.0,16.0,84,0.00,,,0.00,0.000000,,2013-03-06 13:11:00,
2013-03-06 05:22:00,41.0,37.0,-100.00,SSW,194,4.0,16.0,84,0.00,,,0.00,0.000000,,2013-03-06 13:22:00,
2013-03-06 05:32:00,41.0,37.0,-100.00,SSW,194,4.0,16.0,84,0.00,,,0.00,0.000000,,2013-03-06 13:32:00,
2013-03-06 05:42:00,41.0,37.0,-100.00,SSW,194,4.0,16.0,84,0.00,,,0.00,0.000000,,2013-03-06 13:42:00,
2013-03-06 05:50:00,41.0,37.0,-100.00,SW,234,6.0,13.0,84,0.00,,,0.00,0.000000,,2013-03-06 13:50:00,
2013-03-06 06:21:00,41.0,37.0,-100.00,SW,234,6.0,13.0,84,0.00,,,0.00,0.000000,,2013-03-06 14:21:00,
2013-03-06 06:32:00,41.0,37.0,-100.00,SW,234,6.0,13.0,84,0.00,,,0.00,0.000000,,2013-03-06 14:32:00,
2013-03-06 06:41:00,41.0,37.0,-100.00,SW,234,6.0,13.0,84,0.00,,,0.00,0.000000,,2013-03-06 14:41:00,
2013-03-06 06:50:00,41.0,36.0,-100.00,SW,236,5.0,16.0,82,0.00,,,0.00,27.000000,,2013-03-06 14:50:00,
2013-03-06 07:21:00,41.0,36.0,-100.00,SW,236,5.0,16.0,82,0.00,,,0.00,27.000000,,2013-03-06 15:21:00,
2013-03-06 07:32:00,41.0,36.0,-100.00,SW,236,5.0,16.0,82,0.00,,,0.00,27.000000,,2013-03-06 15:32:00,
2013-03-06 07:42:00,41.0,36.0,-100.00,SW,236,5.0,16.0,82,0.00,,,0.00,27.000000,,2013-03-06 15:42:00,
2013-03-06 07:50:00,45.0,37.0,-100.00,SW,233,7.0,16.0,72,0.00,,,0.00,233.000000,,2013-03-06 15:50:00,
2013-03-06 08:21:00,45.0,37.0,-100.00,SW,233,7.0,16.0,72,0.00,,,0.00,233.000000,,2013-03-06 16:21:00,
2013-03-06 08:32:00,45.0,37.0,-100.00,SW,233,7.0,16.0,72,0.00,,,0.00,233.000000,,2013-03-06 16:32:00,
2013-03-06 08:41:00,45.0,37.0,-100.00,SW,233,7.0,16.0,72,0.00,,,0.00,233.000000,,2013-03-06 16:41:00,
2013-03-06 08:50:00,48.0,37.0,-100.00,WSW,244,10.0,17.0,66,0.00,,,0.00,447.000000,,2013-03-06 16:50:00,
2013-03-06 09:11:00,48.0,37.0,-100.00,WSW,244,10.0,17.0,66,0.00,,,0.00,447.000000,,2013-03-06 17:11:00,
2013-03-06 09:21:00,48.0,37.0,-100.00,WSW,244,10.0,17.0,66,0.00,,,0.00,447.000000,,2013-03-06 17:21:00,
2013-03-06 09:32:00,48.0,37.0,-100.00,WSW,244,10.0,17.0,66,0.00,,,0.00,447.000000,,2013-03-06 17:32:00,
2013-03-06 09:41:00,48.0,37.0,-100.00,WSW,244,10.0,17.0,66,0.00,,,0.00,447.000000,,2013-03-06 17:41:00,
2013-03-06 09:50:00,53.0,37.0,-100.00,West,264,7.0,16.0,54,0.00,,,0.00,642.000000,,2013-03-06 17:50:00,
2013-03-06 10:28:00,53.0,37.0,-100.00,West,264,7.0,16.0,54,0.00,,,0.00,642.000000,,2013-03-06 18:28:00,
2013-03-06 10:42:00,53.0,37.0,-100.00,West,264,7.0,16.0,54,0.00,,,0.00,642.000000,,2013-03-06 18:42:00,
2013-03-06 10:50:00,55.0,37.0,-100.00,WSW,254,14.0,24.0,51,0.00,,,0.00,789.000000,,2013-03-06 18:50:00,
2013-03-06 11:21:00,55.0,37.0,-100.00,WSW,254,14.0,24.0,51,0.00,,,0.00,789.000000,,2013-03-06 19:21:00,
2013-03-06 11:32:00,55.0,37.0,-100.00,WSW,254,14.0,24.0,51,0.00,,,0.00,789.000000,,2013-03-06 19:32:00,
2013-03-06 11:42:00,55.0,37.0,-100.00,WSW,254,14.0,24.0,51,0.00,,,0.00,789.000000,,2013-03-06 19:42:00,
2013-03-06 11:50:00,56.0,38.0,-100.00,WSW,254,17.0,27.0,50,0.00,,,0.00,868.000000,,2013-03-06 19:50:00,
2013-03-06 12:22:00,56.0,38.0,-100.00,WSW,254,17.0,27.0,50,0.00,,,0.00,868.000000,,2013-03-06 20:22:00,
2013-03-06 12:32:00,56.0,38.0,-100.00,WSW,254,17.0,27.0,50,0.00,,,0.00,868.000000,,2013-03-06 20:32:00,
2013-03-06 12:42:00,56.0,38.0,-100.00,WSW,254,17.0,27.0,50,0.00,,,0.00,868.000000,,2013-03-06 20:42:00,
2013-03-06 12:50:00,60.0,38.0,-100.00,WSW,247,12.0,24.0,44,0.00,,,0.00,877.000000,,2013-03-06 20:50:00,
2013-03-06 13:22:00,60.0,38.0,-100.00,WSW,247,12.0,24.0,44,0.00,,,0.00,877.000000,,2013-03-06 21:22:00,
2013-03-06 13:32:00,60.0,38.0,-100.00,WSW,247,12.0,24.0,44,0.00,,,0.00,877.000000,,2013-03-06 21:32:00,
2013-03-06 13:42:00,60.0,38.0,-100.00,WSW,247,12.0,24.0,44,0.00,,,0.00,877.000000,,2013-03-06 21:42:00,
2013-03-06 13:50:00,60.0,36.0,-100.00,WSW,252,14.0,20.0,41,0.00,,,0.00,816.000000,,2013-03-06 21:50:00,
2013-03-06 14:21:00,60.0,36.0,-100.00,WSW,252,14.0,20.0,41,0.00,,,0.00,816.000000,,2013-03-06 22:21:00,
2013-03-06 14:32:00,60.0,36.0,-100.00,WSW,252,14.0,20.0,41,0.00,,,0.00,816.000000,,2013-03-06 22:32:00,
2013-03-06 14:41:00,60.0,36.0,-100.00,WSW,252,14.0,20.0,41,0.00,,,0.00,816.000000,,2013-03-06 22:41:00,
2013-03-06 14:50:00,58.0,37.0,-100.00,WSW,256,14.0,23.0,46,0.00,,,0.00,682.000000,,2013-03-06 22:50:00,
2013-03-06 15:21:00,58.0,37.0,-100.00,WSW,256,14.0,23.0,46,0.00,,,0.00,682.000000,,2013-03-06 23:21:00,
2013-03-06 15:31:00,58.0,37.0,-100.00,WSW,256,14.0,23.0,46,0.00,,,0.00,682.000000,,2013-03-06 23:31:00,
2013-03-06 15:41:00,58.0,37.0,-100.00,WSW,256,14.0,23.0,46,0.00,,,0.00,682.000000,,2013-03-06 23:41:00,
2013-03-06 15:50:00,57.0,37.0,-100.00,WSW,257,12.0,21.0,47,0.00,,,0.00,497.000000,,2013-03-06 23:50:00,
2013-03-06 16:21:00,57.0,37.0,-100.00,WSW,257,12.0,21.0,47,0.00,,,0.00,497.000000,,2013-03-07 00:21:00,
2013-03-06 16:32:00,57.0,37.0,-100.00,WSW,257,12.0,21.0,47,0.00,,,0.00,497.000000,,2013-03-07 00:32:00,
2013-03-06 16:41:00,57.0,37.0,-100.00,WSW,257,12.0,21.0,47,0.00,,,0.00,497.000000,,2013-03-07 00:41:00,
2013-03-06 16:50:00,55.0,38.0,-100.00,WSW,250,12.0,21.0,53,0.00,,,0.00,277.000000,,2013-03-07 00:50:00,
2013-03-06 17:11:00,55.0,38.0,-100.00,WSW,250,12.0,21.0,53,0.00,,,0.00,277.000000,,2013-03-07 01:11:00,
2013-03-06 17:21:00,55.0,38.0,-100.00,WSW,250,12.0,21.0,53,0.00,,,0.00,277.000000,,2013-03-07 01:21:00,
2013-03-06 17:31:00,55.0,38.0,-100.00,WSW,250,12.0,21.0,53,0.00,,,0.00,277.000000,,2013-03-07 01:31:00,
2013-03-06 17:41:00,55.0,38.0,-100.00,WSW,250,12.0,21.0,53,0.00,,,0.00,277.000000,,2013-03-07 01:41:00,
2013-03-06 17:50:00,49.0,39.0,-100.00,WSW,242,8.0,17.0,67,0.00,,,0.00,65.000000,,2013-03-07 01:50:00,
2013-03-06 18:11:00,49.0,39.0,-100.00,WSW,242,8.0,17.0,67,0.00,,,0.00,65.000000,,2013-03-07 02:11:00,
2013-03-06 18:21:00,49.0,39.0,-100.00,WSW,242,8.0,17.0,67,0.00,,,0.00,65.000000,,2013-03-07 02:21:00,
2013-03-06 18:31:00,49.0,39.0,-100.00,WSW,242,8.0,17.0,67,0.00,,,0.00,65.000000,,2013-03-07 02:31:00,
2013-03-06 18:41:00,49.0,39.0,-100.00,WSW,242,8.0,17.0,67,0.00,,,0.00,65.000000,,2013-03-07 02:41:00,
2013-03-06 18:50:00,45.0,38.0,-100.00,WSW,239,11.0,17.0,77,0.00,,,0.00,1.000000,,2013-03-07 02:50:00,
2013-03-06 19:11:00,45.0,38.0,-100.00,WSW,239,11.0,17.0,77,0.00,,,0.00,1.000000,,2013-03-07 03:11:00,
2013-03-06 19:21:00,45.0,38.0,-100.00,WSW,239,11.0,17.0,77,0.00,,,0.00,1.000000,,2013-03-07 03:21:00,
2013-03-06 19:31:00,45.0,38.0,-100.00,WSW,239,11.0,17.0,77,0.00,,,0.00,1.000000,,2013-03-07 03:31:00,
2013-03-06 19:41:00,45.0,38.0,-100.00,WSW,239,11.0,17.0,77,0.00,,,0.00,1.000000,,2013-03-07 03:41:00,
2013-03-06 19:50:00,43.0,38.0,-100.00,WSW,243,10.0,19.0,83,0.00,,,0.00,0.000000,,2013-03-07 03:50:00,
2013-03-06 20:11:00,43.0,38.0,-100.00,WSW,243,10.0,19.0,83,0.00,,,0.00,0.000000,,2013-03-07 04:11:00,
2013-03-06 20:21:00,43.0,38.0,-100.00,WSW,243,10.0,19.0,83,0.00,,,0.00,0.000000,,2013-03-07 04:21:00,
2013-03-06 20:31:00,43.0,38.0,-100.00,WSW,243,10.0,19.0,83,0.00,,,0.00,0.000000,,2013-03-07 04:31:00,
2013-03-06 20:41:00,43.0,38.0,-100.00,WSW,243,10.0,19.0,83,0.00,,,0.00,0.000000,,2013-03-07 04:41:00,
2013-03-06 20:50:00,42.0,39.0,-100.00,WSW,245,10.0,17.0,88,0.00,,,0.00,0.000000,,2013-03-07 04:50:00,
2013-03-06 21:12:00,42.0,39.0,-100.00,WSW,245,10.0,17.0,88,0.00,,,0.00,0.000000,,2013-03-07 05:12:00,
2013-03-06 21:22:00,42.0,39.0,-100.00,WSW,245,10.0,17.0,88,0.00,,,0.00,0.000000,,2013-03-07 05:22:00,
2013-03-06 21:32:00,42.0,39.0,-100.00,WSW,245,10.0,17.0,88,0.00,,,0.00,0.000000,,2013-03-07 05:32:00,
2013-03-06 21:41:00,42.0,39.0,-100.00,WSW,245,10.0,17.0,88,0.00,,,0.00,0.000000,,2013-03-07 05:41:00,
2013-03-06 21:50:00,41.0,38.0,-100.00,WSW,249,10.0,19.0,89,0.00,,,0.00,0.000000,,2013-03-07 05:50:00,
2013-03-06 22:11:00,41.0,38.0,-100.00,WSW,249,10.0,19.0,89,0.00,,,0.00,0.000000,,2013-03-07 06:11:00,
2013-03-06 22:21:00,41.0,38.0,-100.00,WSW,249,10.0,19.0,89,0.00,,,0.00,0.000000,,2013-03-07 06:21:00,
2013-03-06 22:31:00,41.0,38.0,-100.00,WSW,249,10.0,19.0,89,0.00,,,0.00,0.000000,,2013-03-07 06:31:00,
2013-03-06 22:41:00,41.0,38.0,-100.00,WSW,249,10.0,19.0,89,0.00,,,0.00,0.000000,,2013-03-07 06:41:00,
2013-03-06 22:50:00,41.0,38.0,-100.00,WSW,237,12.0,20.0,89,0.00,,,0.00,0.000000,,2013-03-07 06:50:00,
2013-03-06 23:21:00,41.0,38.0,-100.00,WSW,237,12.0,20.0,89,0.00,,,0.00,0.000000,,2013-03-07 07:21:00,
2013-03-06 23:32:00,41.0,38.0,-100.00,WSW,237,12.0,20.0,89,0.00,,,0.00,0.000000,,2013-03-07 07:32:00,
2013-03-06 23:41:00,41.0,38.0,-100.00,WSW,237,12.0,20.0,89,0.00,,,0.00,0.000000,,2013-03-07 07:41:00,
2013-03-06 23:50:00,42.0,38.0,-100.00,WSW,249,12.0,21.0,86,0.00,,,0.00,0.000000,,2013-03-07 07:50:00,